Tiempo atmosférico en la estación meteorológica de Barcelona Aeropuerto, Barcelona (4 m.)



Fecha
DESCASC
Temp. máxima en grados centígrados (hora)
DESCASC
Temp. mínima en grados centígrados (hora)
DESCASC
Temp. media en grados centígrados
DESCASC
Racha de viento máxima en m/sg (hora)
DESCASC
Velocidad máxima media en intervalos de 10 minutos(hora)
DESCASC
Precipitaciones diarias en mm
DESCASC
Precipitaciones de 00:00 a 06:00 en mm
DESCASC
Precipitaciones de 06:00 a 12:00 en mm
DESCASC
Precipitaciones de 12:00 a 18:00 en mm
DESCASC
Precipitaciones de 18:00 a 24:00 en mm
DESCASC
25-04-2019 18.1 (12:30) 14.2 (23:10) 16.2 9.17 (06:00) 6.94 (05:50) 0.3 0 0 0.3 0
24-04-2019 18.1 (13:40) 13 (07:40) 15.6 15.28 (15:20) 11.67 (15:10) 0 0 0 0 0
23-04-2019 18.9 (14:10) 14.3 (01:30) 16.6 9.72 (13:50) 6.94 (13:40) 2.1 2.1 0 0 0
22-04-2019 18.3 (10:40) 15.4 (00:00) 16.8 18.06 (13:30) 13.33 (10:50) 0.1 0 0.1 0 0
21-04-2019 19.9 (16:00) 13.2 (00:00) 16.5 18.89 (09:50) 15.83 (10:00) 0.1 0.1 0 0 0
20-04-2019 18.9 (15:10) 14.1 (00:00) 16.5 17.5 (08:40) 13.61 (08:50) 0 0 0 0 0
19-04-2019 20.6 (15:20) 15.9 (00:00) 18.3 20.56 (16:20) 16.39 (12:10) 0 0 0 0 0
18-04-2019 18.5 (15:40) 14.3 (00:00) 16.4 25.28 (16:40) 16.11 (15:20) 0 0 0 0 0
17-04-2019 18 (16:10) 11.1 (00:00) 14.6 8.33 (20:50) 4.72 (20:50) 0 0 0 0 0
16-04-2019 18.4 (14:20) 11.2 (00:00) 14.8 7.22 (13:20) 5.28 (06:00) 0 0 0 0 0
15-04-2019 16.3 (15:50) 11.4 (00:00) 13.8 10.28 (08:50) 5.56 (08:50) 0 0 0 0 0
14-04-2019 17.3 (14:10) 9.2 (00:00) 13.2 9.17 (14:20) 6.39 (15:30) 0 0 0 0 0
13-04-2019 19.5 (12:10) 10 (00:00) 14.8 8.89 (11:00) 5.83 (08:30) 0 0 0 0 0
12-04-2019 18.5 (11:30) 12 (00:00) 15.3 9.72 (17:10) 6.39 (16:40) 0 0 0 0 0
11-04-2019 19.8 (12:50) 10.1 (00:00) 14.9 8.33 (19:10) 6.67 (19:10) 0 0 0 0 0
10-04-2019 18.8 (12:50) 9.2 (00:00) 14 10.83 (17:00) 6.39 (18:00) 1 0 0 1 0
09-04-2019 16.7 (16:20) 8.5 (00:00) 12.6 13.33 (19:00) 7.5 (18:50) 12.3 1.8 0 0 10.5
08-04-2019 17.9 (16:00) 7.6 (00:00) 12.7 12.5 (18:40) 9.44 (14:10) 0 0 0 0 0
07-04-2019 18 (13:20) 8.4 (00:00) 13.2 9.17 (17:10) 6.67 (18:00) 1.8 0.5 0 0.2 1.1
06-04-2019 18.7 (14:10) 8.5 (00:00) 13.6 13.89 (14:40) 9.72 (15:40) 1.2 1.2 0 0 0
05-04-2019 17.4 (13:30) 6.6 (00:00) 12 12.78 (14:20) 8.61 (13:40) 0.9 0 0 0 0.9
04-04-2019 16 (19:20) 6 (00:00) 11 9.17 (16:10) 6.94 (09:20) 0 0 0 0 0
03-04-2019 17.4 (14:40) 10.9 (00:00) 14.1 10.28 (18:30) 7.22 (18:30) 3.3 0 0 0.1 3.2
02-04-2019 17.9 (15:10) 10.9 (00:00) 14.4 12.5 (14:50) 9.72 (12:20) 0 0 0 0 0
01-04-2019 18.1 (12:10) 10.8 (00:00) 14.5 10.28 (08:40) 5 (00:10) 0 0 0 0 0
31-03-2019 16.7 (13:40) 10.2 (00:00) 13.5 12.78 (13:10) 9.44 (13:10) 0 0 0 0 0
30-03-2019 16.6 (12:00) 6.7 (00:00) 11.7 8.33 (13:10) 5.56 (08:20) 0 0 0 0 0
29-03-2019 16.8 (13:00) 7.9 (00:00) 12.3 7.78 (06:30) 5.56 (05:50) 0 0 0 0 0
28-03-2019 -- (--) -- (--) -- 8.89 (08:00) 7.22 (08:10) 0 0 0 0 0
27-03-2019 17.3 (11:00) 6 (00:00) 11.6 8.33 (13:30) 6.39 (13:50) 0 0 0 0 0

Gráficas

Temp. máximas Temp. mínimas Temp. medias Precipitaciones Rachas de viento máximas Velocidades máximas media en intervalos de 10 minutos

Datos horarios

Fecha y hora oficial Temperatura (ºC) Velocidad del viento (km/h) Dirección del viento Racha (km/h) Dirección de racha Precipitación (mm) Presión (hPa) Tendencia (hPa) Humedad (%)
2019-04-25 23:00:00 14.9 8 Oeste 18 Oeste 0 1012.9 2.6 83
2019-04-25 22:00:00 16 12 Sudoeste 17 Oeste 0 1012.1 2 81
2019-04-25 21:00:00 15.7 7 Oeste 28 Sudoeste 0 1011.2 0.9 81
2019-04-25 20:00:00 16.5 17 Oeste 30 Sudoeste 0 1010.3 0 79
2019-04-25 19:00:00 17.4 20 Sudoeste 33 Oeste 0 1010.1 -0.4 78
2019-04-25 18:00:00 16.8 19 Sudoeste 33 Sudoeste 0.1 1010.3 -0.1 89
2019-04-25 17:00:00 16.5 10 Sur 17 Oeste 0.2 1010.3 -1 77
2019-04-25 16:00:00 17.4 6 Sudoeste 26 Norte 0 1010.5 -0.7 70
2019-04-25 15:00:00 16.2 21 Norte 28 Norte 0 1010.4 -0.6 79
2019-04-25 14:00:00 16.8 8 Oeste 22 Sudoeste 0 1011.3 0.4 85
2019-04-25 13:00:00 17.7 17 Sudoeste 26 Sudoeste 0 1011.2 0.8 80
2019-04-25 12:00:00 17.2 16 Sudoeste 30 Sudoeste 0 1011 1.1 83
2019-04-25 11:00:00 17.1 17 Sudoeste 30 Oeste 0 1010.9 1.2 83
2019-04-25 10:00:00 16.4 18 Oeste 26 Oeste 0 1010.4 1.1 85
2019-04-25 09:00:00 16.2 16 Sudoeste 24 Oeste 0 1009.9 1 84
2019-04-25 08:00:00 15.7 13 Sudoeste 21 Sudoeste 0 1009.7 0.2 84
2019-04-25 07:00:00 15.4 15 Oeste 33 Sudoeste 0 1009.3 -0.8 84
2019-04-25 06:00:00 15.4 25 Sudoeste 33 Oeste 0 1008.9 -1.7 84
2019-04-25 05:00:00 15.4 20 Sudoeste 30 Sudoeste 0 1009.5 -1.7 84
2019-04-25 04:00:00 15.6 22 Sudoeste 32 Sudoeste 0 1010.1 -1.1 84
2019-04-25 03:00:00 15.6 18 Sudoeste 26 Sudoeste 0 1010.6 -0.6 84
2019-04-25 02:00:00 15.6 16 Sudoeste 28 Sudoeste 0 1011.2 -0.2 83
2019-04-25 01:00:00 15.6 20 Sudoeste 30 Sudoeste 0 1011.2 0.1 83
2019-04-25 00:00:00 15.1 16 Sudoeste 24 Sudoeste 0 1011.2 1 84
2019-04-24 23:00:00 15.3 9 Oeste 15 Sudoeste 0 1011.4 1.7 82
2019-04-24 22:00:00 15 9 Sudoeste 15 Oeste 0 1011.1 1.6 77
2019-04-24 21:00:00 15.1 11 Oeste 18 Sudoeste 0 1010.2 1.1 76
2019-04-24 20:00:00 16.1 15 Sudoeste 30 Sudoeste 0 1009.7 0.6 69
2019-04-24 19:00:00 16.8 24 Sudoeste 42 Sudoeste 0 1009.5 -0.1 66
2019-04-24 18:00:00 17.4 32 Sudoeste 46 Sudoeste 0 1009.1 -0.3 60
2019-04-24 17:00:00 17.1 33 Sudoeste 52 Oeste 0 1009.1 0.4 58
2019-04-24 16:00:00 17 40 Sudoeste 55 Sudoeste 0 1009.6 1.2 57
2019-04-24 15:00:00 17.7 38 Sudoeste 52 Sudoeste 0 1009.4 1.3 55
2019-04-24 14:00:00 17.6 36 Sudoeste 48 Sudoeste 0 1008.7 1.6 58
2019-04-24 13:00:00 16.9 31 Sudoeste 39 Sudoeste 0 1008.4 2.1 64
2019-04-24 12:00:00 16.7 29 Sudoeste 37 Sudoeste 0 1008.1 2.9 66
2019-04-24 11:00:00 17.7 23 Sudoeste 30 Sudoeste 0 1007.1 3 44
2019-04-24 10:00:00 16.9 20 Sudoeste 26 Sudoeste 0 1006.3 3.3 46
2019-04-24 09:00:00 13.8 8 Noroeste 13 Noroeste 0 1005.2 3 71
2019-04-24 08:00:00 13.5 6 Norte 13 Norte 0 1004.1 2.2 86
2019-04-24 07:00:00 14.2 9 Sudoeste 17 Sudoeste 0 1003 1.7 86
2019-04-24 06:00:00 14.2 15 Sudoeste 26 Sudoeste 0 1002.2 0.7 82
2019-04-24 05:00:00 14.5 19 Oeste 26 Sudoeste 0 1001.9 0 88
2019-04-24 04:00:00 15.3 15 Sudoeste 33 Sudoeste 0 1001.3 -0.3 88
2019-04-24 03:00:00 15.3 18 Oeste 26 Oeste 0 1001.5 0.9 86
2019-04-24 02:00:00 15.7 15 Sudoeste 28 Sudoeste 0 1001.9 1.5 82
2019-04-24 01:00:00 15.9 15 Sudoeste 22 Sudoeste 0 1001.6 1.6 80
2019-04-24 00:00:00 15.7 9 Sur 13 Sudoeste 0 1000.6 1.7 85
2019-04-23 23:00:00 15.9 8 Sudoeste 18 Sudoeste 0 1000.4 2 84
2019-04-23 22:00:00 16.1 9 Sur 15 Sur 0 1000 1.5 85
2019-04-23 21:00:00 16.1 6 Sur 15 Sudoeste 0 998.9 0.7 86
2019-04-23 20:00:00 16.6 12 Sudoeste 24 Sudoeste 0 998.4 0.6 82
2019-04-23 19:00:00 17.3 19 Sudoeste 24 Sur 0 998.5 0.5 79
2019-04-23 18:00:00 17.6 15 Sur 22 Sudoeste 0 998.2 0.1 81
2019-04-23 17:00:00 18.1 16 Sudoeste 28 Sudoeste 0 997.8 -0.3 76
2019-04-23 16:00:00 18.1 17 Sudoeste 30 Sudoeste 0 998 -0.4 73
2019-04-23 15:00:00 18.7 23 Sudoeste 32 Sudoeste 0 998.1 0 65
2019-04-23 14:00:00 18.5 22 Oeste 35 Sudoeste 0 998.1 0.2 68
2019-04-23 13:00:00 17.6 20 Sudoeste 26 Oeste 0 998.4 0.9 73
2019-04-23 12:00:00 16.9 12 Sudoeste 15 Sudoeste 0 998.1 1.1 83
2019-04-23 11:00:00 15.8 5 Sur 17 Sudeste 0 997.9 1.3 84
2019-04-23 10:00:00 15.1 5 Oeste 15 Sudoeste 0 997.5 1.3 92
2019-04-23 09:00:00 15 6 Oeste 15 Sudoeste 0 997 0.8 92
2019-04-23 08:00:00 14.8 6 Oeste -- -- 0 996.6 0.2 91
2019-04-23 07:00:00 14.7 3 Oeste 9 Sudoeste 0 996.2 0 92
2019-04-23 06:00:00 14.7 9 Sudoeste 11 Sudoeste 0 996.2 -0.4 93
2019-04-23 05:00:00 14.5 4 Oeste 8 Sudoeste 0 996.4 -0.9 92
2019-04-23 04:00:00 14.5 4 Oeste 11 Noroeste 0 996.2 -1.6 88
2019-04-23 03:00:00 14.5 4 Norte 11 Noroeste 0 996.6 -1.3 87
2019-04-23 02:00:00 14.4 8 Noroeste 28 Nordeste 2.1 997.3 -0.7 89
2019-04-23 01:00:00 16.4 20 Nordeste 26 Nordeste 0 997.8 -0.1 71
2019-04-23 00:00:00 17.1 18 Nordeste 37 Nordeste 0 997.9 0.1 68
2019-04-22 23:00:00 17.2 21 Nordeste 35 Nordeste 0 998 0.3 62
2019-04-22 22:00:00 17.4 22 Nordeste 42 Nordeste 0 997.9 0 58
2019-04-22 21:00:00 17.5 24 Este 35 Este 0 997.8 0 56
2019-04-22 20:00:00 17.5 24 Nordeste 46 Nordeste 0 997.7 0.5 58
2019-04-22 19:00:00 17.6 27 Nordeste 46 Nordeste 0 997.9 -1 60
2019-04-22 18:00:00 17.4 31 Este 45 Nordeste 0 997.8 -1.3 66
2019-04-22 17:00:00 17.2 26 Nordeste 46 Nordeste 0 997.2 -2.4 64
2019-04-22 16:00:00 17.3 28 Este 52 Este 0 998.9 -1.1 62
2019-04-22 15:00:00 17.5 26 Este 54 Este 0 999.1 -1.2 63
2019-04-22 14:00:00 17.2 39 Este 65 Nordeste 0 999.6 -1 66
2019-04-22 13:00:00 17.9 41 Este 63 Este 0 1000 -0.6 63
2019-04-22 12:00:00 17.4 41 Este 59 Este 0 1000.3 -0.6 63
2019-04-22 11:00:00 17.7 45 Este 59 Este 0 1000.6 -0.6 59
2019-04-22 10:00:00 16.6 35 Este 54 Este 0 1000.6 -0.1 64
2019-04-22 09:00:00 15.5 34 Nordeste 58 Este 0.1 1000.9 -0.6 73
2019-04-22 08:00:00 16.4 37 Este 55 Nordeste 0 1001.2 -1.4 62
2019-04-22 07:00:00 16.5 40 Este 54 Este 0 1000.7 -2.7 56
2019-04-22 06:00:00 16.6 27 Nordeste 58 Este 0 1001.5 -2.8 57
2019-04-22 05:00:00 16.4 37 Nordeste 50 Este 0 1002.6 -3.1 62
2019-04-22 04:00:00 16.7 31 Este 54 Este 0 1003.4 -2.6 58
2019-04-22 03:00:00 16.3 33 Este 46 Este 0 1004.3 -2.5 62
2019-04-22 02:00:00 17.3 28 Este 41 Nordeste 0 1005.7 -1.9 49
2019-04-22 01:00:00 17 33 Este 54 Nordeste 0 1006 -2.6 54
2019-04-22 00:00:00 17.3 36 Nordeste 50 Nordeste 0 1006.8 -1.1 53
2019-04-21 23:00:00 17.1 35 Nordeste 61 Este 0 1007.6 -0.4 58
2019-04-21 22:00:00 17 33 Este 48 Este 0 1008.6 0.4 60
2019-04-21 21:00:00 16.8 36 Este 58 Este 0 1007.9 -0.9 66
2019-04-21 20:00:00 16.6 36 Este 58 Este 0 1008 -1 71
2019-04-21 19:00:00 16.9 40 Este 63 Este 0 1008.2 -1.4 69
2019-04-21 18:00:00 17.5 45 Este 61 Este 0 1008.8 -1.7 66
2019-04-21 17:00:00 18.2 51 Este 63 Este 0 1009 -1.9 62
2019-04-21 16:00:00 19.7 43 Este 61 Este 0 1009.6 -1.9 52
2019-04-21 15:00:00 18.4 46 Este 61 Este 0 1010.5 -1.8 57
2019-04-21 14:00:00 18.8 47 Este 65 Este 0 1010.9 -1.3 50
2019-04-21 13:00:00 18.4 50 Este 63 Este 0 1011.5 -0.7 50
2019-04-21 12:00:00 17.4 48 Este 63 Este 0 1012.3 0.3 63
2019-04-21 11:00:00 18.5 50 Este 68 Este 0 1012.2 -0.1 56
2019-04-21 10:00:00 17.2 57 Este 68 Este 0 1012.2 -0.2 61
2019-04-21 09:00:00 17.4 32 Este 48 Este 0 1012 -0.6 48
2019-04-21 08:00:00 16.9 23 Nordeste 39 Nordeste 0 1012.3 -0.8 47
2019-04-21 07:00:00 16.6 29 Nordeste 55 Nordeste 0 1012.4 -1.5 51
2019-04-21 06:00:00 16.2 41 Este 55 Este 0 1012.6 -2.2 59
2019-04-21 05:00:00 16.6 36 Este 50 Este 0 1013.1 -3 52
2019-04-21 04:00:00 16.3 30 Nordeste 45 Este 0 1013.9 -2.7 52
2019-04-21 03:00:00 13.4 21 Norte 32 Norte 0 1014.8 -2 72
2019-04-21 02:00:00 13.5 21 Norte 32 Norte 0.1 1016.1 -1.4 72
2019-04-21 01:00:00 14.1 23 Norte 37 Norte 0 1016.6 -1.4 67
2019-04-21 00:00:00 14.3 23 Norte 39 Norte 0 1016.8 -1.4 67
2019-04-20 23:00:00 14.8 18 Norte 45 Nordeste 0 1017.5 -0.2 64
2019-04-20 22:00:00 14.1 22 Norte 46 Norte 0 1018 0.4 73
2019-04-20 21:00:00 16.3 24 Nordeste 42 Norte 0 1018.2 0.5 55
2019-04-20 20:00:00 16.8 25 Nordeste 55 Este 0 1017.7 -0.5 52
2019-04-20 19:00:00 17.4 41 Este 96 Este 0 1017.6 -0.9 53
2019-04-20 18:00:00 17.7 47 Este 59 Este 0 1017.7 -1 51
2019-04-20 17:00:00 17.8 39 Este 54 Este 0 1018.2 -1.3 51
2019-04-20 16:00:00 18.4 40 Este 54 Este 0 1018.5 -1.8 46
2019-04-20 15:00:00 18.7 42 Este 61 Este 0 1018.7 -1.9 43
2019-04-20 14:00:00 18.6 46 Este 63 Este 0 1019.5 -0.6 43
2019-04-20 13:00:00 18.6 46 Este 61 Este 0 1020.3 0.1 45
2019-04-20 12:00:00 17.5 43 Este 61 Este 0 1020.6 0.7 58
2019-04-20 11:00:00 17.8 44 Este 58 Este 0 1020.1 0.3 52
2019-04-20 10:00:00 18 39 Este 61 Este 0 1020.2 0.8 47
2019-04-20 09:00:00 17.9 44 Este 63 Nordeste 0 1019.9 0 44
2019-04-20 08:00:00 17.6 45 Este 61 Este 0 1019.8 -0.6 44
2019-04-20 07:00:00 17.4 41 Este 58 Este 0 1019.4 -1.5 46
2019-04-20 06:00:00 17.3 43 Este 55 Este 0 1019.9 -1.3 49
2019-04-20 05:00:00 17.4 41 Este 55 Este 0 1020.4 -1.1 48
2019-04-20 04:00:00 17.4 40 Este 59 Este 0 1020.9 -1.2 49
2019-04-20 03:00:00 17.3 39 Este 58 Este 0 1021.2 -1 50
2019-04-20 02:00:00 17.3 44 Este 58 Este 0 1021.5 -0.7 51
2019-04-20 01:00:00 17.2 41 Este 54 Este 0 1022.1 -0.2 51
2019-04-20 00:00:00 16.9 40 Este 61 Este 0 1022.2 0.7 57
2019-04-19 23:00:00 17.2 48 Este 59 Este 0 1022.2 0.7 56
2019-04-19 22:00:00 17.4 38 Este 58 Nordeste 0 1022.3 0.6 56
2019-04-19 21:00:00 17.5 42 Este 55 Nordeste 0 1021.5 0.1 59
2019-04-19 20:00:00 17.2 47 Este 63 Este 0 1021.5 0.6 62
2019-04-19 19:00:00 17.5 50 Este 67 Este 0 1021.7 0.7 65
2019-04-19 18:00:00 18.1 52 Este 68 Este 0 1021.4 0.4 60
2019-04-19 17:00:00 18.1 54 Este 74 Este 0 1020.9 -0.2 57
2019-04-19 16:00:00 20 53 Este 71 Este 0 1021 0 47
2019-04-19 15:00:00 19.9 53 Este 67 Este 0 1021 0.9 50
2019-04-19 14:00:00 19.3 51 Este 67 Este 0 1021.1 0.9 55
2019-04-19 13:00:00 18.5 54 Este 72 Este 0 1021 0.6 58
2019-04-19 12:00:00 19.3 57 Este 71 Este 0 1020.1 0.2 53
2019-04-19 11:00:00 18.4 51 Este 65 Este 0 1020.2 0.8 59
2019-04-19 10:00:00 16.9 45 Este 63 Este 0 1020.4 1.6 68
2019-04-19 09:00:00 16.2 49 Este 63 Este 0 1019.9 1.8 68
2019-04-19 08:00:00 16 37 Este 54 Este 0 1019.4 1.1 67
2019-04-19 07:00:00 16 37 Este 54 Este 0 1018.8 0.3 67
2019-04-19 06:00:00 16.1 36 Este 50 Este 0 1018.1 0.2 66
2019-04-19 05:00:00 16 41 Este 52 Este 0 1018.3 -0.2 68
2019-04-19 04:00:00 16.1 42 Este 55 Este 0 1018.5 0.8 66
2019-04-19 03:00:00 16.1 41 Este 58 Este 0 1017.9 -0.1 67
2019-04-19 02:00:00 16.2 39 Este 63 Este 0 1018.5 0.4 67
2019-04-19 01:00:00 16.1 48 Este 65 Este 0 1017.7 0.5 67
2019-04-19 00:00:00 16.5 39 Este 58 Este 0 1018 1.2 65
2019-04-18 23:00:00 16.2 42 Este 61 Este 0 1018.1 1.6 66
2019-04-18 22:00:00 16.2 45 Este 58 Este 0 1017.2 1.3 68
2019-04-18 21:00:00 15.9 40 Este 55 Este 0 1016.8 1.3 76
2019-04-18 20:00:00 16.8 34 Este 59 Este 0 1016.5 0.2 66
2019-04-18 19:00:00 17.2 45 Este 68 Este 0 1015.9 -0.9 64
2019-04-18 18:00:00 17.1 54 Este 68 Este 0 1015.5 0.1 69
2019-04-18 17:00:00 17.1 47 Este 91 Este 0 1016.3 -1.1 71
2019-04-18 16:00:00 17.6 41 Este 71 Este 0 1016.8 -0.4 68
2019-04-18 15:00:00 17.9 51 Este 63 Este 0 1015.4 -2 69
2019-04-18 14:00:00 17.3 31 Este 54 Este 0 1017.4 -1.1 71
2019-04-18 13:00:00 17.2 41 Este 54 Este 0 1017.2 -0.7 69
2019-04-18 12:00:00 16.2 37 Este 50 Este 0 1017.4 -0.5 65
2019-04-18 11:00:00 15.7 33 Este 54 Nordeste 0 1018.5 1.7 73
2019-04-18 10:00:00 15.6 40 Este 52 Este 0 1017.9 1.6 74
2019-04-18 09:00:00 15 33 Este 42 Este 0 1017.9 1 79
2019-04-18 08:00:00 14.7 32 Este 42 Este 0 1016.8 -0.9 79
2019-04-18 07:00:00 14.3 27 Este 39 Nordeste 0 1016.3 -1.7 81
2019-04-18 06:00:00 14.4 26 Este 33 Este 0 1016.9 -0.1 85
2019-04-18 05:00:00 14.5 21 Este 28 Este 0 1017.7 0 86
2019-04-18 04:00:00 14.7 19 Este 33 Este 0 1018 -0.2 85
2019-04-18 03:00:00 14.7 24 Este 32 Este 0 1017 -1.2 87
2019-04-18 02:00:00 14.8 22 Este 28 Este 0 1017.7 -0.8 89
2019-04-18 01:00:00 15.3 18 Este 22 Este 0 1018.2 0.1 85
2019-04-18 00:00:00 15.5 15 Este 21 Este 0 1018.2 0.5 83
2019-04-17 23:00:00 15.5 15 Este 21 Este 0 1018.5 1.4 84
2019-04-17 22:00:00 15.4 14 Este 18 Este 0 1018.1 1.1 86
2019-04-17 21:00:00 15.6 15 Este 30 Este 0 1017.7 0.7 84
2019-04-17 20:00:00 15.7 14 Este 21 Este 0 1017.1 -0.2 82
2019-04-17 19:00:00 16.4 14 Este 26 Sudeste 0 1017 -1 77
2019-04-17 18:00:00 17.1 15 Este 21 Sudeste 0 1017 -1.5 73
2019-04-17 17:00:00 17.5 13 Sudeste 26 Sur 0 1017.3 -2 69
2019-04-17 16:00:00 17.8 11 Sudeste 21 Este 0 1018 -1.7 66
2019-04-17 15:00:00 17.5 10 Sudeste 18 Sudeste 0 1018.5 -1.4 65
2019-04-17 14:00:00 16.8 7 Sur 22 Sur 0 1019.3 -0.4 66
2019-04-17 13:00:00 16.3 10 Sudeste 18 Sudeste 0 1019.7 0.3 67
2019-04-17 12:00:00 15.6 9 Sur 17 Sudeste 0 1019.9 0.7 71
2019-04-17 11:00:00 15.1 10 Sudeste 18 Sudeste 0 1019.7 0.6 73
2019-04-17 10:00:00 14.4 6 Este 13 Este 0 1019.4 0.7 82
2019-04-17 09:00:00 12.8 10 Norte 17 Norte 0 1019.2 0.5 84
2019-04-17 08:00:00 11.8 12 Norte 21 Norte 0 1019.1 -0.2 87
2019-04-17 07:00:00 11.3 16 Norte 22 Nordeste 0 1018.7 -1.2 90
2019-04-17 06:00:00 11.2 12 Norte 17 Norte 0 1018.7 -1.4 90
2019-04-17 05:00:00 11.7 12 Norte 17 Norte 0 1019.3 -0.9 88
2019-04-17 04:00:00 12 13 Norte 17 Norte 0 1019.9 -0.8 87
2019-04-17 03:00:00 13.2 6 Norte 13 Norte 0 1020.1 -0.7 85
2019-04-17 02:00:00 13.9 8 Nordeste 11 Norte 0 1020.2 -0.8 83
2019-04-17 01:00:00 14 4 Este 11 Este 0 1020.7 -0.1 86
2019-04-17 00:00:00 14.4 8 Este 13 Este 0 1020.8 0.3 86
2019-04-16 23:00:00 14.3 12 Nordeste 21 Este 0 1021 0.9 82
2019-04-16 22:00:00 14.5 7 Sudeste 18 Nordeste 0 1020.8 0.7 83
2019-04-16 21:00:00 14.6 11 Este 21 Este 0 1020.5 0.8 82
2019-04-16 20:00:00 15.1 16 Este 22 Sudeste 0 1020.1 0.6 82
2019-04-16 19:00:00 15.8 13 Sudeste 21 Sur 0 1020.1 0.4 84
2019-04-16 18:00:00 16.5 14 Sudeste 24 Sudeste 0 1019.7 -0.3 77
2019-04-16 17:00:00 17.1 15 Sudeste 22 Sudeste 0 1019.5 -0.5 74
2019-04-16 16:00:00 17.6 15 Sudeste 24 Sudeste 0 1019.7 -0.3 66
2019-04-16 15:00:00 17.7 9 Sudeste 24 Sudeste 0 1020 0 64
2019-04-16 14:00:00 17.7 15 Sudeste 26 Este 0 1020 0.2 63
2019-04-16 13:00:00 16.6 17 Sudeste 22 Este 0 1020 1 74
2019-04-16 12:00:00 16.8 11 Este 17 Este 0 1020 1.6 64
2019-04-16 11:00:00 15.9 3 Norte 13 Norte 0 1019.8 2.1 69
2019-04-16 10:00:00 14.1 13 Norte 18 Norte 0 1019 2 65
2019-04-16 09:00:00 12.8 13 Norte 22 Norte 0 1018.4 1.6 67
2019-04-16 08:00:00 11.8 15 Norte 22 Norte 0 1017.7 1.1 70
2019-04-16 07:00:00 11.6 17 Norte 24 Norte 0 1017 0.5 71
2019-04-16 06:00:00 11.6 19 Norte 24 Norte 0 1016.8 0.1 70
2019-04-16 05:00:00 11.7 12 Norte 17 Norte 0 1016.6 -0.2 71
2019-04-16 04:00:00 12.1 11 Norte 17 Norte 0 1016.5 -0.7 67
2019-04-16 03:00:00 12.1 12 Norte 18 Norte 0 1016.7 0.2 67
2019-04-16 02:00:00 12.5 13 Norte 22 Norte 0 1016.8 0 64
2019-04-16 01:00:00 12.3 14 Norte 21 Norte 0 1017.2 0.5 68
2019-04-16 00:00:00 13.7 11 Nordeste 21 Nordeste 0 1016.5 0.1 71
2019-04-15 23:00:00 13.8 16 Nordeste 26 Nordeste 0 1016.8 0.8 66
2019-04-15 22:00:00 14.1 13 Este 26 Nordeste 0 1016.7 0.7 61
2019-04-15 21:00:00 14.3 13 Este 18 Este 0 1016.4 0.2 56
2019-04-15 20:00:00 14.7 14 Este 22 Este 0 1016 -0.7 56
2019-04-15 19:00:00 15.3 14 Este 21 Este 0 1016 -0.8 57
2019-04-15 18:00:00 15.7 12 Este 26 Este 0 1016.2 -1.1 50
2019-04-15 17:00:00 15.8 11 Sudeste 22 Sudeste 0 1016.7 -1.2 55
2019-04-15 16:00:00 16 14 Sudeste 24 Este 0 1016.8 -1.5 54
2019-04-15 15:00:00 15.3 15 Sudeste 26 Sudeste 0 1017.3 -1.3 57
2019-04-15 14:00:00 15.5 15 Sudeste 24 Sudeste 0 1017.9 -0.7 55
2019-04-15 13:00:00 15.7 17 Este 26 Este 0 1018.3 -0.1 59
2019-04-15 12:00:00 15.2 18 Sudeste 30 Este 0 1018.6 0.5 60
2019-04-15 11:00:00 15.3 19 Este 28 Este 0 1018.6 1.1 62
2019-04-15 10:00:00 14.8 20 Este 30 Este 0 1018.4 1.2 60
2019-04-15 09:00:00 14.1 17 Este 37 Este 0 1018.1 1.3 67
2019-04-15 08:00:00 13.3 13 Este 22 Este 0 1017.5 0.8 69
2019-04-15 07:00:00 12.1 13 Este 21 Este 0 1017.2 0.4 82
2019-04-15 06:00:00 11.6 13 Norte 18 Nordeste 0 1016.8 -0.3 84
2019-04-15 05:00:00 11.8 12 Norte 18 Norte 0 1016.7 -0.6 85
2019-04-15 04:00:00 12.4 10 Norte 15 Norte 0 1016.8 -0.4 87
2019-04-15 03:00:00 12.9 12 Norte 15 Norte 0 1017.1 0.1 85
2019-04-15 02:00:00 13.2 10 Norte 13 Norte 0 1017.3 1.1 83
2019-04-15 01:00:00 14.1 10 Este 18 Este 0 1017.2 1.4 82
2019-04-15 00:00:00 14.5 15 Este 18 Este 0 1017 1.7 81
2019-04-14 23:00:00 14.5 11 Este 18 Este 0 1016.2 1.6 81
2019-04-14 22:00:00 14.3 16 Este 22 Este 0 1015.8 1.4 77
2019-04-14 21:00:00 14.3 14 Este 21 Sudeste 0 1015.3 1.3 76
2019-04-14 20:00:00 14.6 17 Este 22 Este 0 1014.6 0.6 74
2019-04-14 19:00:00 15.1 15 Este 22 Sudeste 0 1014.4 -0.2 72
2019-04-14 18:00:00 15.4 17 Este 28 Este 0 1014 -0.8 71
2019-04-14 17:00:00 16.1 21 Este 33 Este 0 1014 -0.5 68
2019-04-14 16:00:00 16.2 22 Este 30 Este 0 1014.6 0.2 69
2019-04-14 15:00:00 16.3 23 Este 33 Este 0 1014.8 0.2 71
2019-04-14 14:00:00 17 19 Este 32 Este 0 1014.5 -0.1 71
2019-04-14 13:00:00 16.4 21 Este 32 Este 0 1014.4 0 75
2019-04-14 12:00:00 16.9 18 Este 32 Nordeste 0 1014.6 0.5 69
2019-04-14 11:00:00 15.9 12 Nordeste 26 Norte 0 1014.6 0.8 62
2019-04-14 10:00:00 12.5 15 Norte 22 Norte 0 1014.4 1.1 65
2019-04-14 09:00:00 11.1 15 Norte 24 Norte 0 1014.1 0.9 70
2019-04-14 08:00:00 9.7 19 Norte 26 Norte 0 1013.8 -0.2 76
2019-04-14 07:00:00 9.5 21 Norte 32 Norte 0 1013.3 -1.2 76
2019-04-14 06:00:00 9.7 19 Norte 24 Norte 0 1013.2 -1.6 80
2019-04-14 05:00:00 10.3 14 Norte 21 Norte 0 1014 -1.4 81
2019-04-14 04:00:00 10.3 13 Norte 18 Norte 0 1014.5 -1.3 81
2019-04-14 03:00:00 10.9 14 Norte 18 Norte 0 1014.8 -1.2 79
2019-04-14 02:00:00 11.6 11 Norte 13 Norte 0 1015.4 -0.6 77
2019-04-14 01:00:00 13 5 Norte 13 Norte 0 1015.8 -0.1 80
2019-04-14 00:00:00 14.7 9 Sudoeste 17 Sudoeste 0 1016 0.3 77
2019-04-13 23:00:00 14.7 10 Sudoeste 17 Sudoeste 0 1016 0.6 75
2019-04-13 22:00:00 15.1 12 Sudoeste 24 Sudoeste 0 1015.9 0.7 73
2019-04-13 21:00:00 15.5 13 Sudoeste 21 Sudoeste 0 1015.7 0.6 70
2019-04-13 20:00:00 16.6 17 Sudoeste 22 Sudoeste 0 1015.4 0.2 67
2019-04-13 19:00:00 17.1 16 Sudoeste 26 Sudoeste 0 1015.2 -0.3 64
2019-04-13 18:00:00 17.4 17 Sudoeste 26 Sudoeste 0 1015.1 -1 56
2019-04-13 17:00:00 17.6 19 Sudoeste 26 Sudoeste 0 1015.2 -1.1 54
2019-04-13 16:00:00 17.3 19 Sudoeste 28 Sudoeste 0 1015.5 -1.2 59
2019-04-13 15:00:00 17.7 14 Sudoeste 22 Sudoeste 0 1016.1 -0.8 55
2019-04-13 14:00:00 17.6 13 Sur 21 Sur 0 1016.3 -0.8 59
2019-04-13 13:00:00 17.3 14 Sur 22 Sur 0 1016.7 -0.2 60
2019-04-13 12:00:00 18.9 10 Norte 24 Norte 0 1016.9 0.2 40
2019-04-13 11:00:00 16.4 15 Norte 32 Norte 0 1017.1 0.9 52
2019-04-13 10:00:00 13.9 18 Norte 26 Norte 0 1016.9 1.2 68
2019-04-13 09:00:00 11.8 18 Norte 26 Norte 0 1016.7 1.2 80
2019-04-13 08:00:00 10.4 20 Norte 28 Norte 0 1016.2 0.5 86
2019-04-13 07:00:00 10.2 19 Norte 24 Norte 0 1015.7 -0.2 87
2019-04-13 06:00:00 10.7 15 Norte 22 Norte 0 1015.5 -0.9 86
2019-04-13 05:00:00 11.7 15 Norte 24 Norte 0 1015.7 -1.2 84
2019-04-13 04:00:00 12.8 9 Noroeste 15 Norte 0 1015.9 -1 85
2019-04-13 03:00:00 12.7 10 Norte 15 Norte 0 1016.4 -0.4 85
2019-04-13 02:00:00 12.9 8 Norte 21 Nordeste 0 1016.9 0.5 84
2019-04-13 01:00:00 13.2 6 Norte 9 Norte 0 1016.9 0.9 84
2019-04-13 00:00:00 14.5 6 Sur 13 Sur 0 1016.8 1.2 82
2019-04-12 23:00:00 14.8 8 Sur 18 Sur 0 1016.4 1.5 79
2019-04-12 22:00:00 15 12 Sudeste 18 Sudeste 0 1016 1.3 75
2019-04-12 21:00:00 15.2 13 Sudeste 21 Sur 0 1015.6 1.3 75
2019-04-12 20:00:00 15.5 14 Sudeste 22 Sudeste 0 1014.9 0.9 67
2019-04-12 19:00:00 16.4 16 Sudeste 26 Sudeste 0 1014.7 0.7 56
2019-04-12 18:00:00 16.6 18 Sudeste 35 Sudeste 0 1014.3 0 59
2019-04-12 17:00:00 16.8 20 Sudeste 32 Sudeste 0 1014 -0.2 56
2019-04-12 16:00:00 17.3 20 Sudeste 30 Sudeste 0 1014 -0.3 56
2019-04-12 15:00:00 17.9 15 Sur 24 Sur 0 1014.3 -0.2 45
2019-04-12 14:00:00 17.6 16 Sur 24 Sur 0 1014.2 -0.1 49
2019-04-12 13:00:00 17.1 13 Sur 18 Sur 0 1014.3 0.2 51
2019-04-12 12:00:00 16.8 14 Norte 26 Norte 0 1014.5 0.5 45
2019-04-12 11:00:00 16.8 18 Nordeste 26 Norte 0 1014.3 0.6 45
2019-04-12 10:00:00 15.3 17 Norte 24 Norte 0 1014.1 0.8 49
2019-04-12 09:00:00 13.8 14 Norte 21 Norte 0 1014 0.8 54
2019-04-12 08:00:00 12.4 11 Norte 17 Norte 0 1013.7 0.5 60
2019-04-12 07:00:00 12 12 Norte 18 Norte 0 1013.3 0.1 62
2019-04-12 06:00:00 12.4 15 Norte 21 Norte 0 1013.2 -0.3 62
2019-04-12 05:00:00 12.5 15 Norte 18 Norte 0 1013.2 -0.6 66
2019-04-12 04:00:00 12.5 16 Norte 18 Norte 0 1013.2 -0.3 68
2019-04-12 03:00:00 13.4 9 Norte 17 Norte 0 1013.5 -0.1 66
2019-04-12 02:00:00 13.8 13 Norte 21 Norte 0 1013.8 0.3 65
2019-04-12 01:00:00 14.2 12 Norte 17 Norte 0 1013.5 -0.3 71
2019-04-12 00:00:00 14.7 10 Noroeste 13 Noroeste 0 1013.6 0.8 74
2019-04-11 23:00:00 15 10 Nordeste 18 Nordeste 0 1013.5 1.6 73
2019-04-11 22:00:00 15.3 9 Sudeste 26 Nordeste 0 1013.8 1.8 73
2019-04-11 21:00:00 15.4 15 Este 22 Nordeste 0 1012.8 1.1 72
2019-04-11 20:00:00 16 17 Este 30 Este 0 1011.9 0.8 57
2019-04-11 19:00:00 17 19 Este 26 Este 0 1012 0.7 48
2019-04-11 18:00:00 17.9 19 Este 26 Este 0 1011.7 0.1 38
2019-04-11 17:00:00 19 11 Sudeste 18 Sudeste 0 1011.1 -0.8 34
2019-04-11 16:00:00 19 13 Sur 24 Sudoeste 0 1011.3 -0.7 36
2019-04-11 15:00:00 18.3 13 Sur 22 Sur 0 1011.6 -0.6 40
2019-04-11 14:00:00 18.4 11 Sur 24 Sur 0 1011.9 -0.4 49
2019-04-11 13:00:00 19.2 10 Sur 22 Norte 0 1012 -0.3 36
2019-04-11 12:00:00 18.2 14 Norte 24 Norte 0 1012.2 0.3 38
2019-04-11 11:00:00 15.4 14 Norte 24 Norte 0 1012.3 0.8 50
2019-04-11 10:00:00 13 15 Norte 21 Norte 0 1012.3 1.2 60
2019-04-11 09:00:00 12.3 10 Norte 21 Norte 0 1011.9 0.8 61
2019-04-11 08:00:00 10.7 15 Norte 24 Norte 0 1011.5 0.4 68
2019-04-11 07:00:00 10.3 5 Norte 22 Norte 0 1011.1 -0.1 75
2019-04-11 06:00:00 11 11 Norte 22 Norte 0 1011.1 -0.4 72
2019-04-11 05:00:00 11.1 14 Norte 22 Norte 0 1011.1 -0.7 81
2019-04-11 04:00:00 11.3 12 Norte 21 Norte 0 1011.2 -0.8 82
2019-04-11 03:00:00 10.9 12 Norte 24 Norte 0 1011.5 -0.4 83
2019-04-11 02:00:00 10.9 16 Norte 22 Norte 0 1011.8 -0.3 81
2019-04-11 01:00:00 10.8 9 Norte 17 Norte 0 1012 0.3 85
2019-04-11 00:00:00 11.9 10 Noroeste 11 Noroeste 0 1011.9 1.1 83
2019-04-10 23:00:00 13.5 8 Este 15 Noroeste 0 1012.1 1.8 75
2019-04-10 22:00:00 13.2 3 Noroeste 18 Noroeste 0 1011.7 1.8 73
2019-04-10 21:00:00 13.8 0 Calma 15 Noroeste 0 1010.8 1.2 73
2019-04-10 20:00:00 14.7 13 Noroeste 17 Noroeste 0 1010.3 -0.2 73
2019-04-10 19:00:00 16 3 Oeste 24 Este 0 1009.9 1.5 60
2019-04-10 18:00:00 14.3 23 Este 28 Este 0.8 1009.6 1.3 76
2019-04-10 17:00:00 15.4 19 Norte 39 Oeste 0.2 1010.5 1.9 57
2019-04-10 16:00:00 17.9 20 Sudoeste 26 Sudoeste 0 1008.4 -0.4 57
2019-04-10 15:00:00 18.4 18 Sudoeste 28 Sudoeste 0 1008.3 -0.6 59
2019-04-10 14:00:00 17.1 21 Sudoeste 28 Sudoeste 0 1008.6 -0.5 59
2019-04-10 13:00:00 17.9 14 Sudoeste 22 Norte 0 1008.8 0.1 56
2019-04-10 12:00:00 16.5 16 Norte 24 Norte 0 1008.9 0.5 59
2019-04-10 11:00:00 13.6 17 Norte 28 Norte 0 1009.1 1.1 70
2019-04-10 10:00:00 12.2 17 Norte 26 Norte 0 1008.7 0.9 76
2019-04-10 09:00:00 10.5 18 Norte 26 Norte 0 1008.4 0.7 82
2019-04-10 08:00:00 9.8 18 Norte 26 Norte 0 1008 0.2 83
2019-04-10 07:00:00 9.3 17 Norte 24 Norte 0 1007.8 -0.2 86
2019-04-10 06:00:00 9.6 20 Norte 26 Norte 0 1007.7 -0.6 86
2019-04-10 05:00:00 9.5 15 Norte 21 Norte 0 1007.8 -0.8 88
2019-04-10 04:00:00 10 12 Norte 18 Norte 0 1008 -0.8 87
2019-04-10 03:00:00 10.3 13 Norte 18 Norte 0 1008.3 -1 86
2019-04-10 02:00:00 10.2 17 Norte 32 Norte 0 1008.6 -0.5 88
2019-04-10 01:00:00 9.9 13 Norte 17 Norte 0 1008.8 -0.2 91
2019-04-10 00:00:00 10.4 9 Noroeste 21 Norte 0 1009.3 0.4 89
2019-04-09 23:00:00 10.1 17 Norte 48 Nordeste 0 1009.1 -0.4 90
2019-04-09 22:00:00 9.7 18 Norte 42 Norte 0 1009 -1 94
2019-04-09 21:00:00 9.7 9 Norte 32 Norte 0.2 1008.9 0.4 96
2019-04-09 20:00:00 9.4 10 Nordeste 30 Este 2.9 1009.5 1.2 98
2019-04-09 19:00:00 9.8 26 Norte 48 Norte 7.4 1010 1.5 87
2019-04-09 18:00:00 15.1 16 Sudeste 22 Sudeste 0 1008.5 -0.4 80
2019-04-09 17:00:00 16.5 9 Sur 24 Sudeste 0 1008.3 -1.2 68
2019-04-09 16:00:00 16.1 18 Sudeste 26 Sudeste 0 1008.5 -0.9 72
2019-04-09 15:00:00 15.9 18 Sudeste 28 Sudeste 0 1008.9 -0.7 75
2019-04-09 14:00:00 15.4 17 Sudeste 28 Sudeste 0 1009.5 0 76
2019-04-09 13:00:00 15.5 22 Sudeste 28 Este 0 1009.4 0.2 74
2019-04-09 12:00:00 14.4 21 Este 28 Este 0 1009.6 0.4 79
2019-04-09 11:00:00 15.9 9 Este 21 Este 0 1009.5 0.7 71
2019-04-09 10:00:00 14.9 17 Nordeste 26 Nordeste 0 1009.2 0.5 69
2019-04-09 09:00:00 13.3 15 Norte 21 Norte 0 1009.2 0.5 79
2019-04-09 08:00:00 11.8 13 Norte 18 Norte 0 1008.8 0.1 87
2019-04-09 07:00:00 12.2 12 Norte 21 Norte 0 1008.7 -0.6 89
2019-04-09 06:00:00 12.2 13 Norte 22 Norte 0.5 1008.7 -0.8 89
2019-04-09 05:00:00 12.6 13 Norte 17 Norte 0 1008.7 -1.1 89
2019-04-09 04:00:00 12.6 8 Norte 15 Norte 0 1009.3 -0.8 89
2019-04-09 03:00:00 12.8 12 Nordeste 13 Nordeste 0 1009.5 -1 87
2019-04-09 02:00:00 13.1 7 Nordeste 18 Norte 0 1009.8 -0.6 89
2019-04-09 01:00:00 14.6 10 Oeste 24 Sudoeste 1.3 1010.1 -0.3 83
2019-04-09 00:00:00 14.9 8 Sur 15 Sudoeste 0 1010.5 0.7 87
2019-04-08 23:00:00 14.7 12 Sudoeste 17 Sudoeste 0 1010.4 1 88
2019-04-08 22:00:00 14.8 14 Sudoeste 24 Sudoeste 0 1010.4 1.3 87
2019-04-08 21:00:00 15.3 18 Sur 30 Sudoeste 0 1009.8 0.9 82
2019-04-08 20:00:00 16.2 24 Sudoeste 33 Oeste 0 1009.4 0.5 69
2019-04-08 19:00:00 16.9 26 Sudoeste 45 Sudoeste 0 1009.1 -0.1 64
2019-04-08 18:00:00 16.9 31 Sudoeste 42 Sudoeste 0 1008.9 -0.7 71
2019-04-08 17:00:00 17.8 26 Sudoeste 41 Sudoeste 0 1008.9 -1 66
2019-04-08 16:00:00 17.7 29 Sudoeste 39 Oeste 0 1009.2 -1.1 60
2019-04-08 15:00:00 17.3 28 Sudoeste 42 Oeste 0 1009.6 -1.3 60
2019-04-08 14:00:00 17.1 33 Sudoeste 39 Sudoeste 0 1009.9 -1.2 57
2019-04-08 13:00:00 16.9 23 Sudoeste 32 Sudoeste 0 1010.3 -0.8 55
2019-04-08 12:00:00 15.5 19 Sudoeste 24 Sudoeste 0 1010.9 -0.6 63
2019-04-08 11:00:00 13.8 5 Noroeste 17 Norte 0 1011.1 -0.2 76
2019-04-08 10:00:00 11.1 10 Norte 21 Norte 0 1011.1 -0.4 78
2019-04-08 09:00:00 9 16 Norte 22 Norte 0 1011.5 0 84
2019-04-08 08:00:00 8.3 17 Norte 24 Norte 0 1011.3 -0.5 87
2019-04-08 07:00:00 7.6 14 Norte 22 Norte 0 1011.5 -0.8 89
2019-04-08 06:00:00 8.1 17 Norte 24 Norte 0 1011.5 -0.9 88
2019-04-08 05:00:00 8.3 15 Norte 22 Norte 0 1011.8 -1 90
2019-04-08 04:00:00 8.6 16 Norte 22 Norte 0 1012.3 -0.7 91
2019-04-08 03:00:00 9 16 Norte 22 Norte 0 1012.4 -0.9 92
2019-04-08 02:00:00 9.6 12 Norte 18 Norte 0 1012.8 -0.4 91
2019-04-08 01:00:00 9.8 14 Norte 18 Norte 0 1013 -0.2 92
2019-04-08 00:00:00 9.6 14 Norte 17 Norte 0 1013.3 0.9 91
2019-04-07 23:00:00 10.2 7 Noroeste 11 Noroeste 0 1013.2 2 91
2019-04-07 22:00:00 11.1 9 Noroeste 17 Norte 0 1013.2 2.4 87
2019-04-07 21:00:00 11.8 12 Norte 15 Norte 0 1012.4 2 86
2019-04-07 20:00:00 13.4 8 Oeste 18 Oeste 0 1011.2 2 76
2019-04-07 19:00:00 12.9 14 Sudoeste 24 Este 1.1 1010.8 2.5 83
2019-04-07 18:00:00 13.8 24 Este 33 Este 0.2 1010.4 3.2 78
2019-04-07 17:00:00 15.9 19 Sudeste 28 Sudeste 0 1009.2 2.5 57
2019-04-07 16:00:00 16.5 14 Sur 26 Sur 0 1008.3 2.1 51
2019-04-07 15:00:00 16.5 16 Sur 26 Sur 0 1007.2 1.5 53
2019-04-07 14:00:00 16.3 17 Este 28 Sudeste 0 1006.7 1.4 49
2019-04-07 13:00:00 16.9 7 Nordeste 26 Norte 0 1006.2 1.8 43
2019-04-07 12:00:00 15.4 14 Norte 30 Noroeste 0 1005.7 1.8 52
2019-04-07 11:00:00 14 17 Norte 26 Norte 0 1005.3 2.3 58
2019-04-07 10:00:00 12.3 12 Norte 22 Norte 0 1004.4 1.7 66
2019-04-07 09:00:00 10.1 13 Norte 18 Norte 0 1003.9 2.2 72
2019-04-07 08:00:00 8.5 13 Norte 17 Norte 0 1003 1.3 78
2019-04-07 07:00:00 8.5 3 Sudeste 15 Norte 0 1002.7 0.9 76
2019-04-07 06:00:00 8.5 9 Norte 13 Norte 0 1001.7 -0.3 80
2019-04-07 05:00:00 8.8 6 Norte 13 Noroeste 0 1001.7 -0.5 79
2019-04-07 04:00:00 9.2 9 Norte 17 Norte 0 1001.8 -0.8 77
2019-04-07 03:00:00 9.7 10 Norte 24 Norte 0.5 1002 -0.7 79
2019-04-07 02:00:00 10.4 20 Norte 26 Norte 0 1002.2 -0.6 74
2019-04-07 01:00:00 10.1 14 Norte 18 Norte 0 1002.6 -0.2 76
2019-04-07 00:00:00 10.6 15 Norte 33 Nordeste 0 1002.7 0.1 73
2019-04-06 23:00:00 12.4 10 Norte 17 Norte 0 1002.8 0.4 69
2019-04-06 22:00:00 13 6 Norte 17 Sudoeste 0 1002.8 0.6 71
2019-04-06 21:00:00 14.1 12 Sudoeste 24 Sudoeste 0 1002.6 1.1 65
2019-04-06 20:00:00 14.6 18 Sudoeste 39 Sudoeste 0 1002.4 1.1 58
2019-04-06 19:00:00 15.2 27 Sudoeste 41 Sudoeste 0 1002.2 1.3 58
2019-04-06 18:00:00 15.7 29 Sudoeste 39 Sudoeste 0 1001.5 0.3 54
2019-04-06 17:00:00 16.5 32 Sudoeste 39 Sudoeste 0 1001.3 0.2 46
2019-04-06 16:00:00 16 31 Sudoeste 46 Sudoeste 0 1000.9 0.1 51
2019-04-06 15:00:00 16.8 32 Sudoeste 50 Sudoeste 0 1001.2 0.5 47
2019-04-06 14:00:00 18.3 21 Oeste 37 Oeste 0 1001.1 0.2 35
2019-04-06 13:00:00 16.1 19 Noroeste 41 Oeste 0 1000.8 0 42
2019-04-06 12:00:00 15.6 23 Oeste 46 Oeste 0 1000.7 0.6 47
2019-04-06 11:00:00 13.9 30 Oeste 42 Oeste 0 1000.9 1.8 56
2019-04-06 10:00:00 12.5 25 Oeste 39 Oeste 0 1000.8 2.4 61
2019-04-06 09:00:00 10.8 20 Sudoeste 26 Oeste 0 1000.1 2.4 73
2019-04-06 08:00:00 9.6 17 Oeste 33 Oeste 0 999.1 1.6 72
2019-04-06 07:00:00 9.1 9 Norte 22 Norte 0 998.4 0.7 78
2019-04-06 06:00:00 9.6 17 Norte 28 Norte 0 997.7 -0.4 84
2019-04-06 05:00:00 11 15 Norte 22 Norte 0 997.5 -0.8 90
2019-04-06 04:00:00 10.9 0 Calma 17 Noroeste 1.2 997.7 -0.3 90
2019-04-06 03:00:00 11.2 8 Oeste 21 Oeste 0 998.1 0 88
2019-04-06 02:00:00 11.9 12 Oeste 22 Sudoeste 0 998.3 -0.5 85
2019-04-06 01:00:00 11.9 10 Norte 21 Norte 0 998 -0.5 86
2019-04-06 00:00:00 11.9 10 Noroeste 30 Oeste 0.1 998.1 -0.6 86
2019-04-05 23:00:00 12.1 19 Oeste 37 Sudeste 0.8 998.8 -0.4 91
2019-04-05 22:00:00 14.7 26 Sudeste 39 Sudeste 0 998.5 -0.8 84
2019-04-05 21:00:00 14.6 15 Sur 32 Sur 0 998.7 -1.2 87
2019-04-05 20:00:00 15.2 16 Sur 28 Sur 0 999.2 -0.7 85
2019-04-05 19:00:00 15.7 15 Sur 26 Sur 0 999.3 -0.9 81
2019-04-05 18:00:00 16.2 14 Sudoeste 30 Sudoeste 0 999.9 -0.9 75
2019-04-05 17:00:00 16.4 23 Sudoeste 35 Sudoeste 0 999.9 -1.2 74
2019-04-05 16:00:00 16.4 22 Sudoeste 39 Sudoeste 0 1000.2 -1.3 74
2019-04-05 15:00:00 16.2 27 Sudoeste 46 Sudoeste 0 1000.8 -1.3 75
2019-04-05 14:00:00 16 23 Sudoeste 37 Sudoeste 0 1001.1 -1.2 74
2019-04-05 13:00:00 16.5 28 Sudoeste 41 Sudoeste 0 1001.5 -0.7 69
2019-04-05 12:00:00 14.9 16 Sur 33 Sur 0 1002.1 -0.3 76
2019-04-05 11:00:00 11.9 9 Norte 18 Norte 0 1002.3 0 65
2019-04-05 10:00:00 11.4 12 Norte 21 Norte 0 1002.2 -0.1 65
2019-04-05 09:00:00 8.8 15 Norte 24 Norte 0 1002.4 0 70
2019-04-05 08:00:00 7 18 Norte 24 Norte 0 1002.3 -0.5 75
2019-04-05 07:00:00 6.6 17 Norte 24 Norte 0 1002.3 -0.8 75
2019-04-05 06:00:00 7.2 17 Norte 22 Norte 0 1002.4 -0.7 75
2019-04-05 05:00:00 7.3 17 Norte 22 Norte 0 1002.8 -0.5 77
2019-04-05 04:00:00 7.4 12 Norte 18 Norte 0 1003.1 -0.7 78
2019-04-05 03:00:00 8 5 Norte 11 Norte 0 1003.1 -0.8 75
2019-04-05 02:00:00 8.8 2 Noroeste 15 Norte 0 1003.3 -0.6 72
2019-04-05 01:00:00 9.4 5 Norte 13 Norte 0 1003.8 0.2 70
2019-04-05 00:00:00 10.5 7 Nordeste 11 Nordeste 0 1003.9 1 67
2019-04-04 23:00:00 11.4 8 Norte 11 Norte 0 1003.9 1.6 63
2019-04-04 22:00:00 12 3 Noroeste 22 Oeste 0 1003.6 1.3 58
2019-04-04 21:00:00 13.1 21 Oeste 32 Oeste 0 1002.9 0.8 58
2019-04-04 20:00:00 15.4 9 Sur 21 Sudoeste 0 1002.3 0 48
2019-04-04 19:00:00 15.3 10 Sur 32 Sudeste 0 1002.3 -0.1 49
2019-04-04 18:00:00 15 18 Sur 32 Sudeste 0 1002.1 -0.6 52
2019-04-04 17:00:00 15.4 17 Sur 33 Sur 0 1002.3 -0.4 48
2019-04-04 16:00:00 15.1 20 Sur 30 Sudoeste 0 1002.4 -0.8 43
2019-04-04 15:00:00 14.2 17 Sur 28 Sudoeste 0 1002.7 -0.6 40
2019-04-04 14:00:00 13.2 17 Sudoeste 28 Sudoeste 0 1002.7 -0.5 43
2019-04-04 13:00:00 12.2 19 Sudoeste 26 Sudoeste 0 1003.2 0.2 49
2019-04-04 12:00:00 12.3 12 Norte 21 Norte 0 1003.3 0.5 46
2019-04-04 11:00:00 10.3 13 Norte 26 Norte 0 1003.2 1.4 51
2019-04-04 10:00:00 9 13 Norte 32 Norte 0 1003 1.7 55
2019-04-04 09:00:00 7.9 17 Norte 28 Norte 0 1002.8 1.5 57
2019-04-04 08:00:00 6.2 13 Norte 24 Norte 0 1001.8 0.4 66
2019-04-04 07:00:00 6.5 15 Norte 24 Norte 0 1001.3 -0.4 68
2019-04-04 06:00:00 7.6 17 Norte 22 Norte 0 1001.3 -0.9 67
2019-04-04 05:00:00 9.7 10 Norte 18 Este 0 1001.4 -1.2 85
2019-04-04 04:00:00 10.3 14 Este 26 Este 0 1001.7 -1.3 81
2019-04-04 03:00:00 10 14 Este 28 Este 0 1002.2 -0.2 85
2019-04-04 02:00:00 10.4 17 Este 21 Este 0 1002.6 -0.3 87
2019-04-04 01:00:00 10.6 14 Este 21 Este 0 1003 0.3 90
2019-04-04 00:00:00 11.2 4 Este 11 Oeste 0 1002.4 0.4 78
2019-04-03 23:00:00 11.4 8 Oeste 13 Sudoeste 0 1002.9 1.1 78
2019-04-03 22:00:00 11.3 9 Sudoeste 17 Norte 0.6 1002.7 1.6 75
2019-04-03 21:00:00 11.2 10 Norte 24 Noroeste 1.6 1002 0.5 77
2019-04-03 20:00:00 12.3 16 Noroeste 30 Norte 1 1001.8 0.3 75
2019-04-03 19:00:00 13.4 18 Norte 37 Norte 0 1001.1 -0.8 71
2019-04-03 18:00:00 14.9 11 Oeste 21 Noroeste 0.1 1001.5 -0.8 90
2019-04-03 17:00:00 15.6 14 Sudoeste 24 Sudoeste 0 1001.5 -1.7 84
2019-04-03 16:00:00 15.8 18 Sudoeste 28 Sudoeste 0 1001.9 -2.4 82
2019-04-03 15:00:00 17.1 23 Sudoeste 33 Sudoeste 0 1002.3 -3.2 76
2019-04-03 14:00:00 16.8 24 Sudoeste 32 Sudoeste 0 1003.2 -3 75
2019-04-03 13:00:00 17.2 22 Sudoeste 28 Sudoeste 0 1004.3 -2.2 74
2019-04-03 12:00:00 16.6 21 Sudoeste 28 Sudoeste 0 1005.5 -1.3 76
2019-04-03 11:00:00 16.5 18 Oeste 24 Oeste 0 1006.2 -1 78
2019-04-03 10:00:00 15.4 7 Sudoeste 13 Sudoeste 0 1006.5 -1.3 88
2019-04-03 09:00:00 14.7 7 Sur 11 Sur 0 1006.8 -1.3 92
2019-04-03 08:00:00 14.2 6 Sur 13 Sur 0 1007.2 -1.9 93
2019-04-03 07:00:00 14.2 6 Sur 13 Sudeste 0 1007.8 -2.2 92
2019-04-03 06:00:00 14 7 Sur 13 Sur 0 1008.1 -2.6 95
2019-04-03 05:00:00 13.9 5 Este 9 Este 0 1009.1 -2.5 95
2019-04-03 04:00:00 14.2 4 Sudeste 11 Sudeste 0 1010 -2.2 94
2019-04-03 03:00:00 14.5 8 Sudeste 15 Sudeste 0 1010.7 -1.8 94
2019-04-03 02:00:00 14.5 12 Sudeste 18 Este 0 1011.6 -1.1 93
2019-04-03 01:00:00 14.7 14 Este 21 Este 0 1012.2 -0.6 92
2019-04-03 00:00:00 15 13 Este 21 Este 0 1012.5 0.5 91
2019-04-02 23:00:00 15.1 12 Sudeste 17 Este 0 1012.7 1.3 88
2019-04-02 22:00:00 14.9 8 Sudeste 18 Sudoeste 0 1012.8 1.5 90
2019-04-02 21:00:00 15.2 15 Sudoeste 24 Sudoeste 0 1012 0.5 89
2019-04-02 20:00:00 15.5 20 Sudoeste 33 Sudoeste 0 1011.4 -0.4 85
2019-04-02 19:00:00 15.7 24 Sudoeste 39 Sudoeste 0 1011.3 -0.9 83
2019-04-02 18:00:00 16.7 30 Sudoeste 39 Sudoeste 0 1011.5 -1.4 78
2019-04-02 17:00:00 17 30 Sudoeste 42 Sudoeste 0 1011.8 -1.7 77
2019-04-02 16:00:00 17.3 32 Sudoeste 41 Sudoeste 0 1012.2 -1.8 77
2019-04-02 15:00:00 17.4 31 Sudoeste 45 Sudoeste 0 1012.9 -1.5 75
2019-04-02 14:00:00 16.7 33 Sudoeste 42 Sudoeste 0 1013.5 -0.9 76
2019-04-02 13:00:00 17.1 34 Sudoeste 42 Sudoeste 0 1014 -0.3 74
2019-04-02 12:00:00 16.6 32 Sudoeste 39 Sudoeste 0 1014.4 0.2 76
2019-04-02 11:00:00 15.9 24 Sudoeste 35 Sudoeste 0 1014.4 0.5 79
2019-04-02 10:00:00 15.7 21 Sudoeste 28 Sudoeste 0 1014.3 0.6 77
2019-04-02 09:00:00 13 5 Noroeste 13 Oeste 0 1014.2 0.5 73
2019-04-02 08:00:00 12.1 5 Noroeste 9 Oeste 0 1013.9 -0.1 78
2019-04-02 07:00:00 11.1 3 Norte 8 Norte 0 1013.7 -0.7 76
2019-04-02 06:00:00 11.1 3 Norte 8 Norte 0 1013.7 -1.2 79
2019-04-02 05:00:00 11.7 2 Norte 8 Norte 0 1014 -1.3 75
2019-04-02 04:00:00 11.9 0 Calma 13 Norte 0 1014.4 -1.2 71
2019-04-02 03:00:00 11.4 3 Norte 8 Norte 0 1014.9 -0.7 69
2019-04-02 02:00:00 11.8 5 Norte 9 Norte 0 1015.3 -0.4 68
2019-04-02 01:00:00 12.1 4 Norte 9 Oeste 0 1015.6 0 71
2019-04-02 00:00:00 13.5 10 Sudoeste 13 Sudoeste 0 1015.6 0.4 83
2019-04-01 23:00:00 13.8 9 Sudoeste 13 Sudoeste 0 1015.7 1 80
2019-04-01 22:00:00 13.9 6 Sudoeste 13 Sudoeste 0 1015.6 1.1 79
2019-04-01 21:00:00 14.3 9 Sudoeste 15 Sudoeste 0 1015.2 0.9 78
2019-04-01 20:00:00 15 11 Sudoeste 21 Sudoeste 0 1014.7 0.4 77
2019-04-01 19:00:00 15.9 15 Sudoeste 24 Sudoeste 0 1014.5 0 68
2019-04-01 18:00:00 16.8 13 Sur 21 Sur 0 1014.3 -0.4 60
2019-04-01 17:00:00 17.1 14 Sur 26 Sur 0 1014.3 -0.7 47
2019-04-01 16:00:00 17.3 13 Sur 24 Sur 0 1014.5 -0.9 60
2019-04-01 15:00:00 17.4 14 Sudeste 24 Sudeste 0 1014.7 -0.9 50
2019-04-01 14:00:00 17.8 13 Sur 21 Sudeste 0 1015 -0.5 47
2019-04-01 13:00:00 17.5 12 Sudeste 22 Sudeste 0 1015.4 0.4 47
2019-04-01 12:00:00 17.7 4 Sudeste 18 Este 0 1015.6 0.7 46
2019-04-01 11:00:00 16.7 9 Nordeste 24 Norte 0 1015.5 1.2 55
2019-04-01 10:00:00 14.1 10 Norte 35 Norte 0 1015 1.1 58
2019-04-01 09:00:00 12.7 13 Norte 37 Norte 0 1014.9 1.1 62
2019-04-01 08:00:00 11.3 11 Norte 32 Norte 0 1014.3 0.2 69
2019-04-01 07:00:00 10.9 10 Norte 18 Norte 0 1013.9 -0.3 74
2019-04-01 06:00:00 11.4 12 Norte 18 Nordeste 0 1013.8 -0.6 72
2019-04-01 05:00:00 11.5 12 Norte 17 Norte 0 1014.1 -0.6 74
2019-04-01 04:00:00 12.3 13 Norte 15 Norte 0 1014.2 -0.7 73
2019-04-01 03:00:00 13 10 Norte 15 Nordeste 0 1014.4 -0.7 74
2019-04-01 02:00:00 13.9 12 Nordeste 17 Este 0 1014.7 -0.6 78
2019-04-01 01:00:00 14.1 15 Este 22 Este 0 1014.9 -0.4 76
2019-04-01 00:00:00 14.1 18 Este 28 Este 0 1015.1 -0.1 78
2019-03-31 23:00:00 14.2 21 Este 30 Este 0 1015.3 0.3 80
2019-03-31 22:00:00 14.1 26 Este 33 Este 0 1015.3 0.1 79
2019-03-31 21:00:00 14.2 24 Este 35 Nordeste 0 1015.2 0 80
2019-03-31 20:00:00 14.3 28 Este 37 Este 0 1015 -0.3 82
2019-03-31 19:00:00 14.8 29 Este 39 Este 0 1015.2 -0.4 80
2019-03-31 18:00:00 15.3 31 Este 41 Este 0 1015.2 -1.1 76
2019-03-31 17:00:00 15.4 32 Este 41 Este 0 1015.3 -1.6 73
2019-03-31 16:00:00 15.7 30 Este 41 Este 0 1015.6 -1.8 69
2019-03-31 15:00:00 16.5 28 Este 42 Este 0 1016.3 -1.2 64
2019-03-31 14:00:00 16.2 32 Este 46 Este 0 1016.9 -0.3 65
2019-03-31 13:00:00 15.8 33 Este 42 Este 0 1017.4 -0.2 68
2019-03-31 12:00:00 15.3 30 Este 42 Este 0 1017.5 -0.1 67
2019-03-31 11:00:00 15.2 32 Este 42 Nordeste 0 1017.2 -0.2 74
2019-03-31 10:00:00 11.9 15 Norte 33 Norte 0 1017.6 0.4 74
2019-03-31 09:00:00 11.2 15 Norte 37 Noroeste 0 1017.6 -0.2 74
2019-03-31 08:00:00 11 14 Norte 18 Norte 0 1017.4 -1.2 74
2019-03-31 07:00:00 10.8 14 Norte 22 Norte 0 1017.2 -1.8 77
2019-03-31 06:00:00 10.6 15 Norte 22 Norte 0 1017.8 -1.5 78
2019-03-31 05:00:00 10.7 15 Norte 22 Norte 0 1018.6 -1.3 79
2019-03-31 03:00:00 10.5 12 Norte 24 Norte 0 1019.3 -2.2 82
2019-03-31 01:00:00 10.7 15 Norte 22 Nordeste 0 1019.9 -1.9 81
2019-03-31 00:00:00 11.3 13 Norte 17 Norte 0 1020.7 -0.9 78
2019-03-30 23:00:00 13.2 9 Nordeste 13 Este 0 1021.5 0.7 78
2019-03-30 22:00:00 13.5 9 Este 15 Este 0 1021.8 1.2 76
2019-03-30 21:00:00 13.9 12 Este 21 Este 0 1021.6 0.9 73
2019-03-30 20:00:00 14 15 Este 21 Este 0 1020.8 -0.1 71
2019-03-30 19:00:00 14.3 17 Este 24 Este 0 1020.6 -0.9 70
2019-03-30 18:00:00 14.9 18 Este 26 Este 0 1020.7 -1.4 65
2019-03-30 17:00:00 15.4 17 Sudeste 28 Sudeste 0 1020.9 -2 63
2019-03-30 16:00:00 15.8 18 Sudeste 30 Sudeste 0 1021.5 -1.8 58
2019-03-30 15:00:00 16.1 17 Sudeste 30 Este 0 1022.1 -1.8 59
2019-03-30 14:00:00 16.1 18 Este 30 Este 0 1022.9 -1.4 62
2019-03-30 13:00:00 16.2 18 Este 28 Sudeste 0 1023.3 -1.1 60
2019-03-30 12:00:00 16.4 14 Este 26 Este 0 1023.9 -0.5 59
2019-03-30 11:00:00 16 13 Este 24 Este 0 1024.3 -0.3 55
2019-03-30 10:00:00 13.9 12 Norte 24 Norte 0 1024.4 0 57
2019-03-30 09:00:00 10.7 17 Norte 26 Norte 0 1024.4 0.1 64
2019-03-30 08:00:00 7.7 18 Norte 24 Norte 0 1024.6 0.1 75
2019-03-30 07:00:00 6.8 17 Norte 26 Norte 0 1024.4 -0.4 77
2019-03-30 06:00:00 7.6 18 Norte 26 Norte 0 1024.3 -0.9 76
2019-03-30 05:00:00 7.8 19 Norte 24 Norte 0 1024.5 -1.2 77
2019-03-30 04:00:00 8.8 17 Norte 21 Norte 0 1024.8 -1.3 72
2019-03-30 03:00:00 9.2 15 Norte 18 Norte 0 1025.2 -1 70
2019-03-30 02:00:00 9.7 13 Norte 18 Norte 0 1025.7 -0.6 74
2019-03-30 01:00:00 9.7 11 Norte 15 Norte 0 1026.1 -0.3 76
2019-03-30 00:00:00 10.1 9 Norte 13 Norte 0 1026.2 -0.2 74
2019-03-29 23:00:00 11.8 9 Norte 15 Norte 0 1026.3 0.2 70
2019-03-29 22:00:00 13.2 12 Este 15 Este 0 1026.4 0.5 71
2019-03-29 21:00:00 13.4 12 Este 18 Este 0 1026.4 0.6 70
2019-03-29 20:00:00 13.7 12 Este 21 Este 0 1026.1 0 66
2019-03-29 19:00:00 14.7 17 Este 24 Este 0 1025.9 -0.5 59
2019-03-29 18:00:00 15.4 17 Este 26 Sudeste 0 1025.8 -1.1 59
2019-03-29 17:00:00 15.9 17 Sudeste 26 Sudeste 0 1026.1 -1.4 58
2019-03-29 16:00:00 16 14 Sudeste 26 Sudeste 0 1026.4 -1.5 64
2019-03-29 15:00:00 16.7 14 Sudeste 26 Este 0 1026.9 -1.2 47
2019-03-29 14:00:00 16.6 17 Este 26 Sudeste 0 1027.5 -0.8 36
2019-03-29 13:00:00 16.7 15 Sudeste 26 Sudeste 0 1027.9 -0.4 52
2019-03-29 12:00:00 15.9 16 Sudeste 26 Este 0 1028.1 0.1 65
2019-03-29 11:00:00 16.4 15 Este 24 Este 0 1028.3 0.2 56
2019-03-29 10:00:00 14.6 7 Norte 15 Norte 0 1028.3 0.6 54
2019-03-29 09:00:00 12.2 12 Norte 21 Norte 0 1028 0.9 56
2019-03-29 08:00:00 9.4 14 Norte 26 Norte 0 1028.1 1.2 66
2019-03-29 07:00:00 8.3 19 Norte 28 Norte 0 1027.7 0.7 70
2019-03-29 06:00:00 8 20 Norte 26 Norte 0 1027.1 0 73
2019-03-29 05:00:00 8.7 20 Norte 26 Norte 0 1026.9 -0.5 73
2019-03-29 04:00:00 9.1 14 Norte 22 Norte 0 1027 -0.5 73
2019-03-29 03:00:00 9.4 14 Norte 18 Norte 0 1027.1 -0.7 74
2019-03-29 02:00:00 9.7 15 Norte 21 Norte 0 1027.4 -0.7 74
2019-03-29 01:00:00 9.9 16 Norte 21 Norte 0 1027.5 -0.7 73
2019-03-29 00:00:00 10.1 11 Norte 13 Norte 0 1027.8 -0.1 76
2019-03-28 23:00:00 10.6 6 Norte 13 Norte 0 1028.1 0.8 79
2019-03-28 22:00:00 11.7 7 Norte 9 Norte 0 1028.2 1.4 75
2019-03-28 21:00:00 13.7 2 Sudoeste 9 Sudeste 0 1027.9 1.4 69
2019-03-28 20:00:00 13.9 3 Sur 9 Sudeste 0 1027.3 0.9 69
2019-03-28 19:00:00 14.6 5 Sur 15 Sudeste 0 1026.8 0.3 64
2019-03-28 18:00:00 15.5 8 Sur 17 Sur 0 1026.5 -0.1 64
2019-03-28 17:00:00 15.9 12 Sur 21 Sur 0 1026.4 -0.5 64
2019-03-28 16:00:00 16.2 14 Sudeste 22 Sudeste 0 1026.5 -0.7 60
2019-03-28 15:00:00 16.5 14 Sur 22 Sur 0 1026.6 -1.1 54
2019-03-28 14:00:00 16.5 13 Sur 22 Sudeste 0 1026.9 -- 51
2019-03-28 13:00:00 16.7 14 Sudeste 22 Sudeste 0 1027.2 -- 40
2019-03-28 12:00:00 17.1 13 Sudeste 22 Sudeste 0 1027.7 -0.2 34
2019-03-28 11:00:00 -- 16 Este 22 Sudeste 0 -- -- --
2019-03-28 10:00:00 13.9 13 Norte 26 Norte 0 -- -- 52
2019-03-28 09:00:00 10.5 22 Norte 32 Norte 0 1027.9 0.9 63
2019-03-28 08:00:00 8.3 25 Norte 32 Norte 0 1027.8 0.9 71
2019-03-28 07:00:00 7.3 22 Norte 30 Norte 0 1027.3 0.6 75
2019-03-28 06:00:00 7.6 21 Norte 28 Norte 0 1027 0.4 75
2019-03-28 05:00:00 8.2 19 Norte 24 Norte 0 1026.9 0.2 74
2019-03-28 04:00:00 8.4 18 Norte 26 Norte 0 1026.7 -0.2 76
2019-03-28 03:00:00 9.1 14 Norte 18 Norte 0 1026.6 -0.2 75
2019-03-28 02:00:00 9.7 9 Norte 13 Norte 0 1026.7 0.4 73
2019-03-28 01:00:00 9.8 7 Norte 18 Norte 0 1026.9 0.7 72
2019-03-28 00:00:00 10.7 9 Norte 13 Norte 0 1026.8 1 69
2019-03-27 23:00:00 10.9 9 Norte 13 Norte 0 1026.3 1.2 68
2019-03-27 22:00:00 11.3 8 Noroeste 13 Noroeste 0 1026.2 1.6 68
2019-03-27 21:00:00 12.1 6 Noroeste 9 Noroeste 0 1025.8 1.7 67
2019-03-27 20:00:00 13.6 6 Sur 13 Norte 0 1025.1 1.2 60
2019-03-27 19:00:00 14.3 7 Sur 17 Sur 0 1024.6 0.7 56
2019-03-27 18:00:00 14.9 10 Sudeste 18 Sudeste 0 1024.1 0.4 54
2019-03-27 17:00:00 15.6 14 Sudeste 28 Sudeste 0 1023.9 0.2 49
2019-03-27 16:00:00 16 15 Sur 26 Sur 0 1023.9 0.1 51
2019-03-27 15:00:00 16.1 19 Sur 28 Sudoeste 0 1023.7 -0.2 51
2019-03-27 14:00:00 16.1 21 Sudoeste 30 Sudoeste 0 1023.7 -0.2 49
2019-03-27 13:00:00 16.2 19 Sur 26 Sur 0 1023.8 -0.2 50
2019-03-27 12:00:00 15.9 14 Sur 22 Sur 0 1023.9 -0.2 60
2019-03-27 11:00:00 17 10 Sudoeste 17 Sur 0 1023.9 -0.4 39
2019-03-27 10:00:00 13.6 14 Norte 26 Norte 0 1024 0.1 45
2019-03-27 09:00:00 10.4 21 Norte 26 Norte 0 1024.1 0.2 54
2019-03-27 08:00:00 7.6 19 Norte 26 Norte 0 1024.3 0.5 66
2019-03-27 07:00:00 6.1 19 Norte 26 Norte 0 1023.9 0.1 71
2019-03-27 06:00:00 6.6 17 Norte 24 Norte 0 1023.9 0 73
2019-03-27 05:00:00 6.9 19 Norte 24 Norte 0 1023.8 0.1 73
2019-03-27 04:00:00 8.4 14 Norte 22 Norte 0 1023.8 0.2 67
2019-03-27 03:00:00 9.2 15 Norte 21 Norte 0 1023.9 0.5 65
2019-03-27 02:00:00 9.6 13 Norte 17 Norte 0 1023.7 0.7 65
2019-03-27 01:00:00 10.4 6 Norte 9 Norte 0 1023.6 1 63
2019-03-27 00:00:00 11.1 0 Calma 8 Norte 0 1023.4 1.4 58